sensor_id;sensor_type;location;lat;lon;timestamp;pressure;altitude;pressure_sealevel;temperature;humidity
30856;BME280;17570;0.000;0.000;2023-05-14T00:02:24;97496.31;;;20.13;43.19
30856;BME280;17570;0.000;0.000;2023-05-14T00:04:52;97494.67;;;20.12;43.26
30856;BME280;17570;0.000;0.000;2023-05-14T00:07:19;97498.12;;;20.12;43.54
30856;BME280;17570;0.000;0.000;2023-05-14T00:09:47;97495.16;;;20.16;43.83
30856;BME280;17570;0.000;0.000;2023-05-14T00:12:14;97483.63;;;20.17;43.54
30856;BME280;17570;0.000;0.000;2023-05-14T00:14:42;97487.25;;;20.16;43.80
30856;BME280;17570;0.000;0.000;2023-05-14T00:17:09;97480.16;;;20.16;43.53
30856;BME280;17570;0.000;0.000;2023-05-14T00:19:37;97478.67;;;20.13;43.44
30856;BME280;17570;0.000;0.000;2023-05-14T00:22:08;97476.86;;;20.14;43.81
30856;BME280;17570;0.000;0.000;2023-05-14T00:24:36;97468.80;;;20.16;43.72
30856;BME280;17570;0.000;0.000;2023-05-14T00:27:03;97475.89;;;20.15;43.96
30856;BME280;17570;0.000;0.000;2023-05-14T00:29:32;97465.98;;;20.17;43.87
30856;BME280;17570;0.000;0.000;2023-05-14T00:31:59;97458.90;;;20.18;44.03
30856;BME280;17570;0.000;0.000;2023-05-14T00:34:27;97453.63;;;20.18;44.11
30856;BME280;17570;0.000;0.000;2023-05-14T00:36:54;97453.63;;;20.18;43.91
30856;BME280;17570;0.000;0.000;2023-05-14T00:39:21;97449.17;;;20.18;43.90
30856;BME280;17570;0.000;0.000;2023-05-14T00:41:49;97444.08;;;20.17;43.61
30856;BME280;17570;0.000;0.000;2023-05-14T00:44:17;97455.63;;;20.16;43.97
30856;BME280;17570;0.000;0.000;2023-05-14T00:46:44;97452.98;;;20.16;43.80
30856;BME280;17570;0.000;0.000;2023-05-14T00:49:11;97442.45;;;20.16;43.99
30856;BME280;17570;0.000;0.000;2023-05-14T00:51:39;97436.50;;;20.13;43.79
30856;BME280;17570;0.000;0.000;2023-05-14T00:54:07;97429.27;;;20.16;43.93
30856;BME280;17570;0.000;0.000;2023-05-14T00:56:35;97424.81;;;20.16;43.82
30856;BME280;17570;0.000;0.000;2023-05-14T00:59:02;97422.17;;;20.16;43.88
30856;BME280;17570;0.000;0.000;2023-05-14T01:01:30;97426.45;;;20.17;43.82
30856;BME280;17570;0.000;0.000;2023-05-14T01:03:57;97423.99;;;20.16;43.83
30856;BME280;17570;0.000;0.000;2023-05-14T01:17:07;97419.25;;;20.03;44.33
30856;BME280;17570;0.000;0.000;2023-05-14T01:19:40;97425.67;;;20.00;44.19
30856;BME280;17570;0.000;0.000;2023-05-14T01:22:08;97425.02;;;20.06;43.97
30856;BME280;17570;0.000;0.000;2023-05-14T01:24:36;97428.29;;;20.08;43.87
30856;BME280;17570;0.000;0.000;2023-05-14T01:27:09;97432.23;;;20.12;43.85
30856;BME280;17570;0.000;0.000;2023-05-14T01:29:33;97425.33;;;20.11;43.87
30856;BME280;17570;0.000;0.000;2023-05-14T01:32:02;97435.69;;;20.13;43.90
30856;BME280;17570;0.000;0.000;2023-05-14T01:34:31;97426.32;;;20.10;44.24
30856;BME280;17570;0.000;0.000;2023-05-14T01:36:59;97425.50;;;20.10;43.95
30856;BME280;17570;0.000;0.000;2023-05-14T01:39:27;97425.33;;;20.11;43.96
30856;BME280;17570;0.000;0.000;2023-05-14T01:41:56;97416.59;;;20.11;43.91
30856;BME280;17570;0.000;0.000;2023-05-14T01:44:23;97413.30;;;20.09;44.03
30856;BME280;17570;0.000;0.000;2023-05-14T01:46:51;97410.66;;;20.09;44.04
30856;BME280;17570;0.000;0.000;2023-05-14T01:49:19;97418.75;;;20.07;44.13
30856;BME280;17570;0.000;0.000;2023-05-14T01:51:46;97416.11;;;20.07;43.95
30856;BME280;17570;0.000;0.000;2023-05-14T01:54:14;97421.38;;;20.07;43.93
30856;BME280;17570;0.000;0.000;2023-05-14T01:56:42;97423.38;;;20.05;43.70
30856;BME280;17570;0.000;0.000;2023-05-14T01:59:10;97418.11;;;20.05;43.65
30856;BME280;17570;0.000;0.000;2023-05-14T02:01:37;97417.11;;;20.06;43.71
30856;BME280;17570;0.000;0.000;2023-05-14T02:04:05;97408.02;;;20.09;43.83
30856;BME280;17570;0.000;0.000;2023-05-14T02:06:32;97407.39;;;20.07;43.94
30856;BME280;17570;0.000;0.000;2023-05-14T02:09:00;97410.02;;;20.07;44.01
30856;BME280;17570;0.000;0.000;2023-05-14T02:11:27;97412.84;;;20.05;44.03
30856;BME280;17570;0.000;0.000;2023-05-14T02:13:55;97413.80;;;20.04;43.90
30856;BME280;17570;0.000;0.000;2023-05-14T02:16:22;97418.26;;;20.04;43.80
30856;BME280;17570;0.000;0.000;2023-05-14T02:18:50;97415.80;;;20.02;44.13
30856;BME280;17570;0.000;0.000;2023-05-14T02:21:18;97423.71;;;20.02;44.00
30856;BME280;17570;0.000;0.000;2023-05-14T02:23:46;97424.53;;;20.03;44.01
30856;BME280;17570;0.000;0.000;2023-05-14T02:26:14;97420.08;;;20.03;44.10
30856;BME280;17570;0.000;0.000;2023-05-14T02:28:43;97421.25;;;20.01;43.76
30856;BME280;17570;0.000;0.000;2023-05-14T02:31:12;97426.67;;;19.99;44.04
30856;BME280;17570;0.000;0.000;2023-05-14T02:33:40;97419.77;;;19.98;44.08
30856;BME280;17570;0.000;0.000;2023-05-14T02:36:08;97420.77;;;19.97;43.94
30856;BME280;17570;0.000;0.000;2023-05-14T02:38:35;97424.03;;;19.99;43.74
30856;BME280;17570;0.000;0.000;2023-05-14T02:41:03;97415.13;;;20.00;43.76
30856;BME280;17570;0.000;0.000;2023-05-14T02:43:31;97410.05;;;19.99;43.93
30856;BME280;17570;0.000;0.000;2023-05-14T02:45:58;97414.50;;;19.98;43.93
30856;BME280;17570;0.000;0.000;2023-05-14T02:48:26;97413.01;;;19.96;44.01
30856;BME280;17570;0.000;0.000;2023-05-14T02:50:53;97414.19;;;19.93;43.78
30856;BME280;17570;0.000;0.000;2023-05-14T02:53:21;97408.28;;;19.91;44.16
30856;BME280;17570;0.000;0.000;2023-05-14T02:55:48;97418.81;;;19.91;43.91
30856;BME280;17570;0.000;0.000;2023-05-14T02:58:16;97421.45;;;19.91;44.06
30856;BME280;17570;0.000;0.000;2023-05-14T03:00:44;97419.63;;;19.92;44.02
30856;BME280;17570;0.000;0.000;2023-05-14T03:03:12;97416.19;;;19.91;44.57
30856;BME280;17570;0.000;0.000;2023-05-14T03:05:39;97417.15;;;19.90;44.27
30856;BME280;17570;0.000;0.000;2023-05-14T03:08:07;97421.78;;;19.88;44.31
30856;BME280;17570;0.000;0.000;2023-05-14T03:10:34;97415.84;;;19.86;44.11
30856;BME280;17570;0.000;0.000;2023-05-14T03:13:02;97416.51;;;19.88;44.24
30856;BME280;17570;0.000;0.000;2023-05-14T03:15:30;97420.78;;;19.89;44.43
30856;BME280;17570;0.000;0.000;2023-05-14T03:17:57;97420.14;;;19.87;44.52
30856;BME280;17570;0.000;0.000;2023-05-14T03:20:25;97419.47;;;19.85;44.86
30856;BME280;17570;0.000;0.000;2023-05-14T03:22:52;97421.28;;;19.84;44.56
30856;BME280;17570;0.000;0.000;2023-05-14T03:25:21;97419.33;;;19.86;44.60
30856;BME280;17570;0.000;0.000;2023-05-14T03:27:50;97417.51;;;19.87;44.61
30856;BME280;17570;0.000;0.000;2023-05-14T03:30:17;97426.55;;;19.84;44.47
30856;BME280;17570;0.000;0.000;2023-05-14T03:32:45;97423.74;;;19.86;44.68
30856;BME280;17570;0.000;0.000;2023-05-14T03:35:13;97419.33;;;19.86;45.02
30856;BME280;17570;0.000;0.000;2023-05-14T03:37:41;97426.73;;;19.83;44.81
30856;BME280;17570;0.000;0.000;2023-05-14T03:40:08;97442.04;;;19.87;44.90
30856;BME280;17570;0.000;0.000;2023-05-14T03:42:36;97430.32;;;19.90;44.58
30856;BME280;17570;0.000;0.000;2023-05-14T03:45:03;97440.41;;;19.86;44.91
30856;BME280;17570;0.000;0.000;2023-05-14T03:47:31;97418.97;;;19.90;45.09
30856;BME280;17570;0.000;0.000;2023-05-14T03:49:59;97422.27;;;19.92;44.58
30856;BME280;17570;0.000;0.000;2023-05-14T03:52:27;97431.65;;;19.86;44.87
30856;BME280;17570;0.000;0.000;2023-05-14T03:54:54;97438.09;;;19.83;44.97
30856;BME280;17570;0.000;0.000;2023-05-14T03:57:22;97443.67;;;19.88;45.01
30856;BME280;17570;0.000;0.000;2023-05-14T03:59:49;97451.76;;;19.87;44.83
30856;BME280;17570;0.000;0.000;2023-05-14T04:02:18;97452.09;;;19.84;45.07
30856;BME280;17570;0.000;0.000;2023-05-14T04:04:46;97450.27;;;19.84;45.05
30856;BME280;17570;0.000;0.000;2023-05-14T04:07:15;97443.86;;;19.87;44.93
30856;BME280;17570;0.000;0.000;2023-05-14T04:09:43;97436.92;;;19.86;45.03
30856;BME280;17570;0.000;0.000;2023-05-14T04:12:10;97437.27;;;19.83;45.04
30856;BME280;17570;0.000;0.000;2023-05-14T04:14:38;97419.65;;;19.83;45.22
30856;BME280;17570;0.000;0.000;2023-05-14T04:17:05;97416.51;;;19.88;45.21
30856;BME280;17570;0.000;0.000;2023-05-14T04:19:33;97419.47;;;19.85;45.28
30856;BME280;17570;0.000;0.000;2023-05-14T04:22:02;97422.92;;;19.85;45.44
30856;BME280;17570;0.000;0.000;2023-05-14T04:24:29;97436.09;;;19.85;45.59
30856;BME280;17570;0.000;0.000;2023-05-14T04:26:57;97430.63;;;19.95;45.27
30856;BME280;17570;0.000;0.000;2023-05-14T04:29:24;97425.03;;;19.98;44.93
30856;BME280;17570;0.000;0.000;2023-05-14T04:31:52;97425.22;;;19.97;44.96
30856;BME280;17570;0.000;0.000;2023-05-14T04:34:19;97435.89;;;20.03;45.04
30856;BME280;17570;0.000;0.000;2023-05-14T04:36:47;97438.83;;;20.08;44.91
30856;BME280;17570;0.000;0.000;2023-05-14T04:39:14;97446.41;;;20.11;45.02
30856;BME280;17570;0.000;0.000;2023-05-14T04:41:41;97440.95;;;20.13;45.23
30856;BME280;17570;0.000;0.000;2023-05-14T04:44:11;97428.09;;;20.18;44.87
30856;BME280;17570;0.000;0.000;2023-05-14T04:46:38;97423.30;;;20.22;44.81
30856;BME280;17570;0.000;0.000;2023-05-14T04:49:05;97426.24;;;20.27;44.77
30856;BME280;17570;0.000;0.000;2023-05-14T04:51:33;97428.18;;;20.33;44.85
30856;BME280;17570;0.000;0.000;2023-05-14T04:54:01;97425.21;;;20.36;44.90
30856;BME280;17570;0.000;0.000;2023-05-14T04:56:28;97423.06;;;20.39;44.72
30856;BME280;17570;0.000;0.000;2023-05-14T04:58:56;97424.17;;;20.45;44.44
30856;BME280;17570;0.000;0.000;2023-05-14T05:01:23;97421.23;;;20.48;44.55
30856;BME280;17570;0.000;0.000;2023-05-14T05:03:51;97412.63;;;20.54;44.30
30856;BME280;17570;0.000;0.000;2023-05-14T05:06:18;97422.47;;;20.60;44.05
30856;BME280;17570;0.000;0.000;2023-05-14T05:08:46;97417.67;;;20.64;43.72
30856;BME280;17570;0.000;0.000;2023-05-14T05:11:14;97421.09;;;20.73;43.47
30856;BME280;17570;0.000;0.000;2023-05-14T05:13:41;97418.41;;;20.81;44.03
30856;BME280;17570;0.000;0.000;2023-05-14T05:16:09;97411.78;;;20.85;43.59
30856;BME280;17570;0.000;0.000;2023-05-14T05:18:36;97416.64;;;20.96;43.08
30856;BME280;17570;0.000;0.000;2023-05-14T05:21:04;97418.22;;;21.05;42.92
30856;BME280;17570;0.000;0.000;2023-05-14T05:23:32;97418.51;;;21.10;42.89
30856;BME280;17570;0.000;0.000;2023-05-14T05:25:59;97422.44;;;21.14;43.14
30856;BME280;17570;0.000;0.000;2023-05-14T05:28:27;97419.08;;;21.21;42.86
30856;BME280;17570;0.000;0.000;2023-05-14T05:30:55;97422.01;;;21.26;42.67
30856;BME280;17570;0.000;0.000;2023-05-14T05:33:23;97433.48;;;21.41;43.65
30856;BME280;17570;0.000;0.000;2023-05-14T05:35:50;97418.83;;;21.53;43.47
30856;BME280;17570;0.000;0.000;2023-05-14T05:38:18;97418.66;;;21.55;43.34
30856;BME280;17570;0.000;0.000;2023-05-14T05:40:46;97419.76;;;21.60;42.62
30856;BME280;17570;0.000;0.000;2023-05-14T05:43:14;97421.39;;;21.61;42.63
30856;BME280;17570;0.000;0.000;2023-05-14T05:45:42;97419.29;;;21.57;42.99
30856;BME280;17570;0.000;0.000;2023-05-14T05:48:11;97417.94;;;21.61;42.24
30856;BME280;17570;0.000;0.000;2023-05-14T05:50:45;97415.10;;;21.62;42.25
30856;BME280;17570;0.000;0.000;2023-05-14T05:53:11;97414.75;;;21.65;42.78
30856;BME280;17570;0.000;0.000;2023-05-14T05:55:39;97418.13;;;21.59;42.84
30856;BME280;17570;0.000;0.000;2023-05-14T05:58:06;97415.64;;;21.58;42.93
30856;BME280;17570;0.000;0.000;2023-05-14T06:00:36;97420.03;;;21.65;42.46
30856;BME280;17570;0.000;0.000;2023-05-14T06:03:05;97415.22;;;21.69;42.29
30856;BME280;17570;0.000;0.000;2023-05-14T06:05:32;97413.74;;;21.67;42.20
30856;BME280;17570;0.000;0.000;2023-05-14T06:08:01;97414.02;;;21.72;42.75
30856;BME280;17570;0.000;0.000;2023-05-14T06:10:29;97419.14;;;21.73;42.50
30856;BME280;17570;0.000;0.000;2023-05-14T06:12:57;97427.34;;;21.78;42.20
30856;BME280;17570;0.000;0.000;2023-05-14T06:15:24;97433.72;;;21.84;42.05
30856;BME280;17570;0.000;0.000;2023-05-14T06:17:52;97436.98;;;21.86;42.05
30856;BME280;17570;0.000;0.000;2023-05-14T06:20:19;97439.63;;;21.86;42.55
30856;BME280;17570;0.000;0.000;2023-05-14T06:22:47;97438.66;;;21.87;42.00
30856;BME280;17570;0.000;0.000;2023-05-14T06:25:14;97443.37;;;21.91;42.21
30856;BME280;17570;0.000;0.000;2023-05-14T06:27:41;97443.83;;;21.95;42.30
30856;BME280;17570;0.000;0.000;2023-05-14T06:30:09;97443.67;;;21.97;42.45
30856;BME280;17570;0.000;0.000;2023-05-14T06:32:37;97441.03;;;21.97;42.28
30856;BME280;17570;0.000;0.000;2023-05-14T06:35:05;97458.14;;;22.01;42.06
30856;BME280;17570;0.000;0.000;2023-05-14T06:37:32;97462.61;;;22.00;42.19
30856;BME280;17570;0.000;0.000;2023-05-14T06:40:00;97470.19;;;22.03;41.89
30856;BME280;17570;0.000;0.000;2023-05-14T06:42:29;97477.38;;;22.09;42.15
30856;BME280;17570;0.000;0.000;2023-05-14T06:44:57;97478.39;;;22.08;41.75
30856;BME280;17570;0.000;0.000;2023-05-14T06:47:24;97477.38;;;22.09;41.90
30856;BME280;17570;0.000;0.000;2023-05-14T06:49:52;97481.53;;;22.12;41.64
30856;BME280;17570;0.000;0.000;2023-05-14T06:52:21;97483.63;;;22.17;41.48
30856;BME280;17570;0.000;0.000;2023-05-14T06:54:48;97482.42;;;22.19;41.55
30856;BME280;17570;0.000;0.000;2023-05-14T06:57:16;97480.90;;;22.25;41.43
30856;BME280;17570;0.000;0.000;2023-05-14T06:59:43;97483.35;;;22.26;41.48
30856;BME280;17570;0.000;0.000;2023-05-14T07:02:11;97475.06;;;22.29;41.45
30856;BME280;17570;0.000;0.000;2023-05-14T07:04:38;97477.31;;;22.32;41.36
30856;BME280;17570;0.000;0.000;2023-05-14T07:07:06;97484.70;;;22.37;41.72
30856;BME280;17570;0.000;0.000;2023-05-14T07:09:35;97491.00;;;22.36;42.29
30856;BME280;17570;0.000;0.000;2023-05-14T07:12:03;97483.07;;;22.36;43.09
30856;BME280;17570;0.000;0.000;2023-05-14T07:14:31;97495.75;;;22.40;42.71
30856;BME280;17570;0.000;0.000;2023-05-14T07:16:58;97489.71;;;22.47;42.16
30856;BME280;17570;0.000;0.000;2023-05-14T07:19:26;97482.59;;;22.47;42.32
30856;BME280;17570;0.000;0.000;2023-05-14T07:21:55;97479.39;;;22.52;43.25
30856;BME280;17570;0.000;0.000;2023-05-14T07:24:26;97478.02;;;22.56;43.10
30856;BME280;17570;0.000;0.000;2023-05-14T07:26:55;97480.50;;;22.57;43.56
30856;BME280;17570;0.000;0.000;2023-05-14T07:29:23;97477.47;;;22.60;43.79
30856;BME280;17570;0.000;0.000;2023-05-14T07:31:51;97472.17;;;22.60;43.55
30856;BME280;17570;0.000;0.000;2023-05-14T07:34:18;97473.45;;;22.64;44.10
30856;BME280;17570;0.000;0.000;2023-05-14T07:36:46;97471.62;;;22.65;44.74
30856;BME280;17570;0.000;0.000;2023-05-14T07:39:13;97471.72;;;22.72;44.37
30856;BME280;17570;0.000;0.000;2023-05-14T07:41:41;97463.38;;;22.75;44.69
30856;BME280;17570;0.000;0.000;2023-05-14T07:44:08;97464.66;;;22.79;45.16
30856;BME280;17570;0.000;0.000;2023-05-14T07:46:36;97460.83;;;22.81;45.66
30856;BME280;17570;0.000;0.000;2023-05-14T07:49:03;97465.11;;;22.82;45.27
30856;BME280;17570;0.000;0.000;2023-05-14T07:51:31;97469.22;;;22.85;45.87
30856;BME280;17570;0.000;0.000;2023-05-14T07:53:58;97467.48;;;22.92;45.89
30856;BME280;17570;0.000;0.000;2023-05-14T07:56:27;97467.68;;;22.90;45.80
30856;BME280;17570;0.000;0.000;2023-05-14T07:58:55;97474.41;;;22.93;45.97
30856;BME280;17570;0.000;0.000;2023-05-14T08:01:22;97470.37;;;22.97;45.35
30856;BME280;17570;0.000;0.000;2023-05-14T08:03:50;97471.03;;;22.99;44.79
30856;BME280;17570;0.000;0.000;2023-05-14T08:06:18;97469.00;;;23.01;44.43
30856;BME280;17570;0.000;0.000;2023-05-14T08:08:47;97480.50;;;23.08;44.02
30856;BME280;17570;0.000;0.000;2023-05-14T08:11:14;97479.93;;;23.13;40.61
30856;BME280;17570;0.000;0.000;2023-05-14T08:13:42;97483.00;;;23.16;39.07
30856;BME280;17570;0.000;0.000;2023-05-14T08:16:09;97484.84;;;23.37;39.43
30856;BME280;17570;0.000;0.000;2023-05-14T08:18:37;97496.53;;;23.64;40.24
30856;BME280;17570;0.000;0.000;2023-05-14T08:21:04;97503.19;;;23.60;37.88
30856;BME280;17570;0.000;0.000;2023-05-14T08:23:32;97506.82;;;23.59;37.41
30856;BME280;17570;0.000;0.000;2023-05-14T08:26:00;97520.64;;;23.55;37.10
30856;BME280;17570;0.000;0.000;2023-05-14T08:28:27;97525.33;;;23.53;37.80
30856;BME280;17570;0.000;0.000;2023-05-14T08:30:55;97530.63;;;23.53;37.90
30856;BME280;17570;0.000;0.000;2023-05-14T08:33:22;97531.56;;;23.45;37.05
30856;BME280;17570;0.000;0.000;2023-05-14T08:35:52;97524.58;;;23.37;36.89
30856;BME280;17570;0.000;0.000;2023-05-14T08:38:20;97520.47;;;23.35;37.25
30856;BME280;17570;0.000;0.000;2023-05-14T08:40:48;97522.10;;;23.36;37.53
30856;BME280;17570;0.000;0.000;2023-05-14T08:43:17;97520.30;;;23.36;38.07
30856;BME280;17570;0.000;0.000;2023-05-14T08:45:46;97521.28;;;23.35;38.06
30856;BME280;17570;0.000;0.000;2023-05-14T08:48:15;97517.56;;;23.30;38.15
30856;BME280;17570;0.000;0.000;2023-05-14T08:50:44;97528.53;;;23.27;38.51
30856;BME280;17570;0.000;0.000;2023-05-14T08:53:11;97523.44;;;23.25;38.49
30856;BME280;17570;0.000;0.000;2023-05-14T08:55:39;97532.39;;;23.24;38.90
30856;BME280;17570;0.000;0.000;2023-05-14T08:58:06;97543.61;;;23.26;39.25
30856;BME280;17570;0.000;0.000;2023-05-14T09:00:34;97534.23;;;23.24;39.81
30856;BME280;17570;0.000;0.000;2023-05-14T09:03:02;97542.62;;;23.27;39.93
30856;BME280;17570;0.000;0.000;2023-05-14T09:05:30;97542.17;;;23.24;40.03
30856;BME280;17570;0.000;0.000;2023-05-14T09:07:58;97522.56;;;23.18;39.26
30856;BME280;17570;0.000;0.000;2023-05-14T09:10:26;97530.67;;;23.16;40.43
30856;BME280;17570;0.000;0.000;2023-05-14T09:12:53;97539.69;;;23.22;40.49
30856;BME280;17570;0.000;0.000;2023-05-14T09:15:21;97526.08;;;23.25;40.83
30856;BME280;17570;0.000;0.000;2023-05-14T09:17:50;97526.89;;;23.26;39.94
30856;BME280;17570;0.000;0.000;2023-05-14T09:20:18;97523.44;;;23.25;40.76
30856;BME280;17570;0.000;0.000;2023-05-14T09:22:46;97525.72;;;23.28;40.69
30856;BME280;17570;0.000;0.000;2023-05-14T09:25:13;97523.06;;;23.28;40.91
30856;BME280;17570;0.000;0.000;2023-05-14T09:27:41;97517.20;;;23.33;40.94
30856;BME280;17570;0.000;0.000;2023-05-14T09:30:09;97520.30;;;23.36;40.63
30856;BME280;17570;0.000;0.000;2023-05-14T09:32:42;97524.58;;;23.37;40.64
30856;BME280;17570;0.000;0.000;2023-05-14T09:35:15;97513.22;;;23.43;40.95
30856;BME280;17570;0.000;0.000;2023-05-14T09:37:43;97510.13;;;23.40;42.15
30856;BME280;17570;0.000;0.000;2023-05-14T09:40:11;97503.27;;;23.46;41.89
30856;BME280;17570;0.000;0.000;2023-05-14T09:42:41;97495.56;;;23.51;41.48
30856;BME280;17570;0.000;0.000;2023-05-14T09:45:09;97491.70;;;23.53;42.00
30856;BME280;17570;0.000;0.000;2023-05-14T09:47:37;97494.80;;;23.57;42.33
30856;BME280;17570;0.000;0.000;2023-05-14T09:50:05;97482.59;;;23.62;42.10
30856;BME280;17570;0.000;0.000;2023-05-14T09:52:32;97486.06;;;23.63;42.41
30856;BME280;17570;0.000;0.000;2023-05-14T09:55:00;97482.26;;;23.65;42.42
30856;BME280;17570;0.000;0.000;2023-05-14T09:57:28;97476.55;;;23.68;43.07
30856;BME280;17570;0.000;0.000;2023-05-14T09:59:55;97468.02;;;23.73;42.25
30856;BME280;17570;0.000;0.000;2023-05-14T10:02:23;97477.23;;;23.77;41.94
30856;BME280;17570;0.000;0.000;2023-05-14T10:04:56;97451.80;;;23.83;42.00
30856;BME280;17570;0.000;0.000;2023-05-14T10:07:22;97451.02;;;23.89;41.19
30856;BME280;17570;0.000;0.000;2023-05-14T10:09:56;97448.60;;;23.94;41.03
30856;BME280;17570;0.000;0.000;2023-05-14T10:12:24;97454.57;;;24.03;42.14
30856;BME280;17570;0.000;0.000;2023-05-14T10:14:53;97455.63;;;24.08;42.02
30856;BME280;17570;0.000;0.000;2023-05-14T10:17:22;97444.42;;;24.13;41.77
30856;BME280;17570;0.000;0.000;2023-05-14T10:19:54;97442.61;;;24.20;42.13
30856;BME280;17570;0.000;0.000;2023-05-14T10:22:24;97448.17;;;24.25;40.94
30856;BME280;17570;0.000;0.000;2023-05-14T10:24:52;97438.78;;;24.29;40.70
30856;BME280;17570;0.000;0.000;2023-05-14T10:27:21;97435.53;;;24.34;41.56
30856;BME280;17570;0.000;0.000;2023-05-14T10:29:52;97435.18;;;24.37;41.49
30856;BME280;17570;0.000;0.000;2023-05-14T10:32:21;97443.42;;;24.55;41.84
30856;BME280;17570;0.000;0.000;2023-05-14T10:34:51;97432.41;;;24.58;42.12
30856;BME280;17570;0.000;0.000;2023-05-14T10:37:22;97419.53;;;24.55;41.85
30856;BME280;17570;0.000;0.000;2023-05-14T10:39:50;97403.00;;;24.53;41.52
30856;BME280;17570;0.000;0.000;2023-05-14T10:42:20;97403.99;;;24.52;41.57
30856;BME280;17570;0.000;0.000;2023-05-14T10:44:49;97400.34;;;24.53;40.96
30856;BME280;17570;0.000;0.000;2023-05-14T10:47:17;97397.69;;;24.53;41.35
30856;BME280;17570;0.000;0.000;2023-05-14T10:49:45;97395.64;;;24.55;41.60
30856;BME280;17570;0.000;0.000;2023-05-14T10:52:17;97392.78;;;24.57;41.03
30856;BME280;17570;0.000;0.000;2023-05-14T10:54:47;97389.52;;;24.55;40.81
30856;BME280;17570;0.000;0.000;2023-05-14T10:57:16;97383.61;;;24.59;41.16
30856;BME280;17570;0.000;0.000;2023-05-14T10:59:43;97392.00;;;24.63;40.87
30856;BME280;17570;0.000;0.000;2023-05-14T11:02:24;97390.98;;;24.71;41.33
30856;BME280;17570;0.000;0.000;2023-05-14T11:04:53;97390.19;;;24.77;40.26
30856;BME280;17570;0.000;0.000;2023-05-14T11:07:22;97377.13;;;24.88;41.14
30856;BME280;17570;0.000;0.000;2023-05-14T11:09:50;97382.88;;;25.05;41.21
30856;BME280;17570;0.000;0.000;2023-05-14T11:12:18;97383.92;;;25.11;39.11
30856;BME280;17570;0.000;0.000;2023-05-14T11:14:46;97381.87;;;25.13;39.34
30856;BME280;17570;0.000;0.000;2023-05-14T11:17:13;97373.71;;;25.14;39.83
30856;BME280;17570;0.000;0.000;2023-05-14T11:19:42;97371.87;;;25.15;39.77
30856;BME280;17570;0.000;0.000;2023-05-14T11:22:10;97374.31;;;25.16;39.21
30856;BME280;17570;0.000;0.000;2023-05-14T11:24:40;97367.59;;;25.14;39.54
30856;BME280;17570;0.000;0.000;2023-05-14T11:27:07;97357.77;;;25.14;40.41
30856;BME280;17570;0.000;0.000;2023-05-14T11:29:41;97351.21;;;25.17;40.31
30856;BME280;17570;0.000;0.000;2023-05-14T11:32:04;97367.97;;;25.17;39.69
30856;BME280;17570;0.000;0.000;2023-05-14T11:34:34;97367.97;;;25.17;40.09
30856;BME280;17570;0.000;0.000;2023-05-14T11:37:03;97367.97;;;25.17;40.67
30856;BME280;17570;0.000;0.000;2023-05-14T11:39:30;97363.09;;;25.14;41.37
30856;BME280;17570;0.000;0.000;2023-05-14T11:42:03;97357.95;;;25.13;40.94
30856;BME280;17570;0.000;0.000;2023-05-14T11:44:34;97353.25;;;25.08;40.42
30856;BME280;17570;0.000;0.000;2023-05-14T11:47:01;97353.02;;;25.03;40.30
30856;BME280;17570;0.000;0.000;2023-05-14T11:49:30;97354.05;;;25.02;40.07
30856;BME280;17570;0.000;0.000;2023-05-14T11:51:58;97357.73;;;25.01;40.08
30856;BME280;17570;0.000;0.000;2023-05-14T11:54:28;97357.73;;;25.01;39.56
30856;BME280;17570;0.000;0.000;2023-05-14T11:56:56;97357.73;;;25.01;39.41
30856;BME280;17570;0.000;0.000;2023-05-14T11:59:25;97362.41;;;24.99;39.18
30856;BME280;17570;0.000;0.000;2023-05-14T12:01:54;97361.42;;;25.00;39.63
30856;BME280;17570;0.000;0.000;2023-05-14T12:04:23;97363.05;;;25.01;39.38
30856;BME280;17570;0.000;0.000;2023-05-14T12:06:52;97365.07;;;24.99;37.47
30856;BME280;17570;0.000;0.000;2023-05-14T12:09:20;97353.83;;;25.04;38.36
30856;BME280;17570;0.000;0.000;2023-05-14T12:11:49;97341.40;;;25.04;38.78
30856;BME280;17570;0.000;0.000;2023-05-14T12:14:18;97328.91;;;24.98;39.24
30856;BME280;17570;0.000;0.000;2023-05-14T12:16:46;97331.78;;;24.97;38.43
30856;BME280;17570;0.000;0.000;2023-05-14T12:19:21;97343.44;;;24.96;38.76
30856;BME280;17570;0.000;0.000;2023-05-14T12:21:45;97340.14;;;24.93;37.56
30856;BME280;17570;0.000;0.000;2023-05-14T12:24:14;97331.16;;;24.88;37.25
30856;BME280;17570;0.000;0.000;2023-05-14T12:26:45;97311.95;;;24.79;37.49
30856;BME280;17570;0.000;0.000;2023-05-14T12:29:15;97314.80;;;24.71;37.95
30856;BME280;17570;0.000;0.000;2023-05-14T12:31:46;97320.11;;;24.64;38.22
30856;BME280;17570;0.000;0.000;2023-05-14T12:34:16;97330.94;;;24.63;38.48
30856;BME280;17570;0.000;0.000;2023-05-14T12:36:43;97316.62;;;24.57;38.91
30856;BME280;17570;0.000;0.000;2023-05-14T12:39:11;97320.12;;;24.58;39.82
30856;BME280;17570;0.000;0.000;2023-05-14T12:41:38;97308.27;;;24.54;39.28
30856;BME280;17570;0.000;0.000;2023-05-14T12:44:06;97316.41;;;24.52;39.34
30856;BME280;17570;0.000;0.000;2023-05-14T12:46:33;97310.28;;;24.52;40.08
30856;BME280;17570;0.000;0.000;2023-05-14T12:49:01;97312.13;;;24.51;40.15
30856;BME280;17570;0.000;0.000;2023-05-14T12:51:29;97297.62;;;24.47;39.72
30856;BME280;17570;0.000;0.000;2023-05-14T12:53:56;97296.59;;;24.41;40.13
30856;BME280;17570;0.000;0.000;2023-05-14T12:56:24;97298.44;;;24.41;40.08
30856;BME280;17570;0.000;0.000;2023-05-14T12:58:58;97299.03;;;24.43;40.69
30856;BME280;17570;0.000;0.000;2023-05-14T13:01:25;97290.23;;;24.36;39.93
30856;BME280;17570;0.000;0.000;2023-05-14T13:03:53;97279.61;;;24.36;40.44
30856;BME280;17570;0.000;0.000;2023-05-14T13:06:21;97265.98;;;24.39;40.82
30856;BME280;17570;0.000;0.000;2023-05-14T13:08:48;97264.91;;;24.33;40.73
30856;BME280;17570;0.000;0.000;2023-05-14T13:11:16;97264.52;;;24.30;41.08
30856;BME280;17570;0.000;0.000;2023-05-14T13:13:43;97262.85;;;24.29;41.40
30856;BME280;17570;0.000;0.000;2023-05-14T13:16:11;97263.06;;;24.34;40.89
30856;BME280;17570;0.000;0.000;2023-05-14T13:18:40;97251.06;;;24.38;40.80
30856;BME280;17570;0.000;0.000;2023-05-14T13:21:07;97252.72;;;24.39;40.54
30856;BME280;17570;0.000;0.000;2023-05-14T13:23:35;97255.38;;;24.39;40.39
30856;BME280;17570;0.000;0.000;2023-05-14T13:26:02;97254.95;;;24.42;40.46